Time;durP1;ratioP1;P1;durP2;ratioP2;P2;SDS_P1;SDS_P2;PMS_P1;PMS_P2;Temp;Humidity;BMP_temperature;BMP_pressure;BME280_temperature;BME280_humidity;BME280_pressure;Samples;Min_cycle;Max_cycle;Signal;HPM_P1;HPM_P2
2022/06/09 00:01:42;;;;;;;14.57;5.13;;;;;;;15.35;59.08;99227.88;5114482;27;20043;-46
2022/06/09 00:04:13;;;;;;;18.48;5.15;;;;;;;15.33;59.53;99228.91;5095541;28;20069;-45
2022/06/09 00:06:43;;;;;;;15.82;5.40;;;;;;;15.29;59.56;99230.88;5127686;27;20516;-45
2022/06/09 00:09:11;;;;;;;14.98;5.13;;;;;;;15.24;59.78;99220.66;5112018;28;20047;-47
2022/06/09 00:11:41;;;;;;;15.40;6.07;;;;;;;15.24;59.99;99230.31;5139917;27;20035;-49
2022/06/09 00:14:08;;;;;;;12.60;4.85;;;;;;;15.10;60.07;99202.34;5109878;27;20100;-45
2022/06/09 00:16:36;;;;;;;11.32;5.05;;;;;;;15.19;60.31;99227.97;5130692;27;20107;-47
2022/06/09 00:19:02;;;;;;;16.00;5.32;;;;;;;15.17;60.34;99227.25;5149610;27;20438;-47
2022/06/09 00:21:28;;;;;;;13.13;4.50;;;;;;;15.14;60.75;99218.69;5130215;27;20039;-49
2022/06/09 00:23:54;;;;;;;13.32;5.22;;;;;;;15.11;60.68;99219.75;5120584;27;20045;-50
2022/06/09 00:26:20;;;;;;;11.45;4.45;;;;;;;15.01;60.63;99205.53;5132236;27;20039;-48
2022/06/09 00:28:46;;;;;;;13.95;4.40;;;;;;;15.07;60.89;99223.47;5128503;27;20047;-47
2022/06/09 00:31:12;;;;;;;13.63;5.03;;;;;;;15.05;61.17;99220.09;5109217;27;20087;-51
2022/06/09 00:33:37;;;;;;;16.50;4.88;;;;;;;15.03;61.25;99211.50;5131737;27;20066;-47
2022/06/09 00:36:03;;;;;;;15.18;4.68;;;;;;;15.02;61.35;99212.41;5126255;27;20039;-46
2022/06/09 00:38:29;;;;;;;10.90;4.78;;;;;;;15.02;61.25;99215.03;5099859;28;20477;-45
2022/06/09 00:40:59;;;;;;;12.77;5.07;;;;;;;15.01;61.47;99213.38;5139998;27;20042;-47
2022/06/09 00:43:26;;;;;;;12.60;4.90;;;;;;;15.01;61.23;99205.53;5131363;27;20133;-48
2022/06/09 00:46:03;;;;;;;16.17;4.70;;;;;;;15.00;61.49;99209.06;5132934;27;20055;-47
2022/06/09 00:48:51;;;;;;;18.13;5.70;;;;;;;14.99;61.29;99210.00;5129562;27;20066;-47
2022/06/09 00:51:39;;;;;;;15.25;4.85;;;;;;;14.99;61.08;99209.16;5131289;27;20046;-46
2022/06/09 00:54:22;;;;;;;16.08;4.53;;;;;;;15.00;61.09;99211.69;5125229;27;20050;-48
2022/06/09 00:57:00;;;;;;;13.65;4.38;;;;;;;15.00;61.01;99216.06;5113069;27;20126;-45
2022/06/09 00:59:27;;;;;;;12.23;4.47;;;;;;;14.99;61.07;99215.22;5123157;27;20037;-49
2022/06/09 01:01:54;;;;;;;10.75;4.13;;;;;;;14.91;61.13;99204.41;5077077;28;20138;-52
2022/06/09 01:04:22;;;;;;;12.23;4.38;;;;;;;14.94;61.58;99206.81;5102616;27;20047;-49
2022/06/09 01:06:51;;;;;;;10.15;4.75;;;;;;;14.98;61.50;99218.78;5110670;28;20032;-50
2022/06/09 01:09:20;;;;;;;15.77;4.80;;;;;;;14.98;61.66;99220.56;5111066;28;20067;-47
2022/06/09 01:11:47;;;;;;;13.82;4.80;;;;;;;14.99;61.59;99214.38;5125763;27;20036;-51
2022/06/09 01:14:15;;;;;;;19.23;4.85;;;;;;;14.99;61.60;99209.16;5102622;27;20043;-47
2022/06/09 01:16:48;;;;;;;12.77;5.13;;;;;;;14.99;61.75;99217.00;5114593;27;20031;-46
2022/06/09 01:19:41;;;;;;;14.13;4.40;;;;;;;14.99;61.94;99210.00;5129727;27;20137;-50
2022/06/09 01:22:42;;;;;;;10.90;5.15;;;;;;;14.99;61.87;99215.22;5119016;27;20528;-52
2022/06/09 01:25:14;;;;;;;9.95;4.68;;;;;;;14.99;61.74;99211.78;5114461;27;20050;-48
2022/06/09 01:28:00;;;;;;;11.88;4.75;;;;;;;14.99;61.63;99207.38;5110912;27;20623;-53
2022/06/09 01:30:38;;;;;;;12.95;4.20;;;;;;;14.99;61.89;99207.38;5118609;27;20538;-48
2022/06/09 01:33:19;;;;;;;14.20;4.23;;;;;;;15.00;61.62;99216.06;5093602;28;20042;-48
2022/06/09 01:36:09;;;;;;;20.92;5.57;;;;;;;15.00;61.60;99211.69;5121132;27;20046;-47
2022/06/09 01:38:53;;;;;;;14.68;4.93;;;;;;;15.00;61.71;99210.84;5120978;27;20051;-50
2022/06/09 01:41:21;;;;;;;21.52;5.13;;;;;;;15.00;61.59;99211.69;5098713;28;20051;-47
2022/06/09 01:43:47;;;;;;;14.32;5.40;;;;;;;15.01;61.75;99210.75;5111897;28;20464;-48
2022/06/09 01:46:28;;;;;;;17.45;4.80;;;;;;;15.03;61.85;99208.03;5110529;28;20032;-46
2022/06/09 01:48:58;;;;;;;14.80;5.13;;;;;;;15.03;61.96;99211.50;5110354;28;20039;-47
2022/06/09 01:51:26;;;;;;;17.65;5.43;;;;;;;15.04;62.02;99207.09;5126071;27;20042;-49
2022/06/09 01:53:56;;;;;;;16.85;4.63;;;;;;;15.04;62.10;99209.72;5129976;27;20184;-45
2022/06/09 01:56:32;;;;;;;16.17;4.88;;;;;;;15.04;62.19;99209.72;5132139;27;20075;-49
2022/06/09 01:59:07;;;;;;;14.23;5.25;;;;;;;15.04;62.15;99204.47;5125686;28;20047;-50
2022/06/09 02:01:37;;;;;;;14.88;4.68;;;;;;;15.05;62.38;99204.41;5130388;28;20520;-51
2022/06/09 02:04:05;;;;;;;19.33;4.80;;;;;;;15.07;62.29;99197.28;5122208;28;20043;-47
2022/06/09 02:06:32;;;;;;;17.70;5.70;;;;;;;15.08;62.57;99209.44;5097864;28;20043;-47
2022/06/09 02:08:58;;;;;;;17.38;4.65;;;;;;;15.10;62.45;99201.50;5109076;28;20046;-46
2022/06/09 02:11:24;;;;;;;15.20;5.35;;;;;;;15.12;62.41;99207.50;5107960;28;20032;-46
2022/06/09 02:13:51;;;;;;;18.92;5.57;;;;;;;15.16;62.36;99207.22;5114196;28;20518;-48
2022/06/09 02:16:20;;;;;;;21.77;5.55;;;;;;;15.19;62.40;99204.41;5120581;27;20100;-48
2022/06/09 02:19:06;;;;;;;13.75;5.05;;;;;;;15.21;62.22;99206.94;5094286;28;20044;-48
2022/06/09 02:21:33;;;;;;;15.73;5.90;;;;;;;15.17;62.49;99195.81;5122178;28;20039;-49
2022/06/09 02:24:00;;;;;;;20.58;5.72;;;;;;;15.25;62.33;99217.13;5124570;28;20044;-50
2022/06/09 02:26:26;;;;;;;16.42;5.20;;;;;;;15.28;62.26;99206.44;5140923;27;20126;-49
2022/06/09 02:28:52;;;;;;;15.82;5.50;;;;;;;15.33;62.22;99214.06;5116941;28;20045;-46
2022/06/09 02:31:20;;;;;;;19.88;5.43;;;;;;;15.36;62.16;99211.22;5112194;28;20417;-48
2022/06/09 02:33:46;;;;;;;19.55;5.85;;;;;;;15.39;62.21;99211.03;5109977;28;20035;-47
2022/06/09 02:36:12;;;;;;;13.35;6.30;;;;;;;15.43;62.37;99215.16;5128699;28;20092;-46
2022/06/09 02:38:38;;;;;;;17.58;6.20;;;;;;;15.42;62.03;99204.78;5120229;27;20577;-48
2022/06/09 02:41:03;;;;;;;19.63;6.00;;;;;;;15.52;62.16;99216.41;5110895;28;20147;-48
2022/06/09 02:43:29;;;;;;;19.73;5.90;;;;;;;15.54;62.22;99212.75;5117396;28;20048;-48
2022/06/09 02:45:56;;;;;;;27.73;5.80;;;;;;;15.56;62.19;99216.09;5111990;28;20039;-47
2022/06/09 02:48:23;;;;;;;18.83;6.03;;;;;;;15.60;62.04;99209.75;5127226;28;20031;-47
2022/06/09 02:50:51;;;;;;;24.60;6.40;;;;;;;15.64;61.72;99216.50;5131346;27;20472;-46
2022/06/09 02:53:17;;;;;;;18.00;5.72;;;;;;;15.69;61.85;99216.19;5129882;28;20303;-48
2022/06/09 02:55:43;;;;;;;17.90;5.47;;;;;;;15.71;61.74;99209.06;5122899;28;20039;-48
2022/06/09 02:58:10;;;;;;;21.50;5.95;;;;;;;15.76;61.79;99214.84;5111914;28;20040;-46
2022/06/09 03:00:36;;;;;;;20.95;6.63;;;;;;;15.75;61.40;99209.75;5110986;28;20047;-45
2022/06/09 03:03:06;;;;;;;20.73;6.10;;;;;;;15.85;61.03;99216.06;5128228;27;20110;-47
2022/06/09 03:05:33;;;;;;;17.45;6.53;;;;;;;15.90;61.14;99216.63;5123533;27;20059;-47
2022/06/09 03:07:59;;;;;;;23.67;6.75;;;;;;;15.94;60.73;99216.34;5113331;28;20418;-48
2022/06/09 03:10:25;;;;;;;22.65;6.38;;;;;;;15.99;60.68;99216.88;5114273;28;20044;-46
2022/06/09 03:12:51;;;;;;;17.85;6.30;;;;;;;15.99;60.22;99202.94;5115313;27;20039;-45
2022/06/09 03:15:19;;;;;;;19.33;6.35;;;;;;;16.03;60.19;99196.53;5123426;27;20460;-48
2022/06/09 03:17:46;;;;;;;27.93;6.00;;;;;;;16.16;60.03;99209.72;5113104;28;20035;-47
2022/06/09 03:20:25;;;;;;;23.38;6.28;;;;;;;16.21;59.59;99215.50;5113292;27;20303;-47
2022/06/09 03:22:51;;;;;;;22.05;6.65;;;;;;;16.26;59.20;99211.63;5114472;27;20080;-47
2022/06/09 03:25:19;;;;;;;29.65;7.47;;;;;;;16.25;58.93;99206.47;5125675;27;20519;-48
2022/06/09 03:27:46;;;;;;;21.08;6.97;;;;;;;16.36;58.75;99220.59;5120567;27;20529;-48
2022/06/09 03:30:13;;;;;;;23.98;6.95;;;;;;;16.42;58.19;99216.72;5119873;27;20250;-47
2022/06/09 03:32:39;;;;;;;20.30;7.20;;;;;;;16.49;57.55;99216.22;5115254;27;20028;-48
2022/06/09 03:35:06;;;;;;;19.08;7.60;;;;;;;16.57;57.20;99218.34;5114420;27;20040;-46
2022/06/09 03:37:32;;;;;;;23.38;7.60;;;;;;;16.64;56.49;99221.44;5116666;27;20528;-48
2022/06/09 03:39:57;;;;;;;26.80;7.65;;;;;;;16.58;55.98;99198.19;5114902;27;20063;-47
2022/06/09 03:42:25;;;;;;;20.27;7.55;;;;;;;16.71;55.51;99213.03;5123428;27;20047;-47
2022/06/09 03:44:51;;;;;;;20.50;7.82;;;;;;;16.84;55.03;99215.69;5124730;27;20039;-47
2022/06/09 03:47:16;;;;;;;23.02;8.48;;;;;;;16.92;54.76;99221.25;5130341;27;20473;-52
2022/06/09 03:49:42;;;;;;;20.77;6.75;;;;;;;16.99;54.32;99213.81;5113680;28;20039;-47
2022/06/09 03:52:08;;;;;;;27.30;7.75;;;;;;;17.06;53.69;99218.53;5113986;27;20061;-47
2022/06/09 03:54:34;;;;;;;17.77;8.07;;;;;;;17.14;53.76;99221.47;5124645;27;20047;-48
2022/06/09 03:56:59;;;;;;;27.13;7.95;;;;;;;17.22;53.41;99219.16;5128197;27;20387;-48
2022/06/09 03:59:25;;;;;;;16.58;6.75;;;;;;;17.29;53.55;99220.44;5113665;28;20046;-51
2022/06/09 04:01:51;;;;;;;19.48;8.10;;;;;;;17.34;53.17;99218.31;5123472;27;20075;-48
2022/06/09 04:04:16;;;;;;;19.75;7.95;;;;;;;17.47;52.62;99222.72;5130652;27;20043;-53
2022/06/09 04:06:43;;;;;;;25.00;7.93;;;;;;;17.54;52.57;99216.06;5130072;27;20065;-50
2022/06/09 04:09:10;;;;;;;21.70;8.35;;;;;;;17.52;52.58;99202.22;5132564;27;20043;-47
2022/06/09 04:11:36;;;;;;;20.55;8.32;;;;;;;17.68;51.91;99222.09;5119059;27;20039;-50
2022/06/09 04:14:02;;;;;;;23.60;7.93;;;;;;;17.77;51.79;99221.44;5121136;27;20040;-52
2022/06/09 04:16:33;;;;;;;21.20;7.88;;;;;;;17.84;51.67;99218.38;5129528;27;20065;-49
2022/06/09 04:19:02;;;;;;;17.02;7.55;;;;;;;17.92;51.42;99213.41;5112032;27;20460;-47
2022/06/09 04:21:30;;;;;;;23.95;9.23;;;;;;;18.00;51.01;99213.69;5123239;27;20063;-53
2022/06/09 04:23:56;;;;;;;26.33;8.73;;;;;;;18.09;50.61;99211.25;5133421;27;20080;-51
2022/06/09 04:26:25;;;;;;;22.17;8.30;;;;;;;18.16;50.82;99217.72;5123312;27;20043;-48
2022/06/09 04:28:51;;;;;;;18.65;7.88;;;;;;;18.26;50.68;99223.19;5095183;28;20537;-46
2022/06/09 04:31:17;;;;;;;21.00;8.55;;;;;;;18.35;50.53;99219.00;5114769;27;20039;-47
2022/06/09 04:33:43;;;;;;;24.63;8.38;;;;;;;18.41;50.51;99215.94;5120798;27;20035;-46
2022/06/09 04:36:10;;;;;;;19.08;8.35;;;;;;;18.50;50.46;99212.63;5116241;27;20034;-45
2022/06/09 04:38:37;;;;;;;23.17;8.45;;;;;;;18.56;50.60;99212.19;5121057;27;20521;-46
2022/06/09 04:41:04;;;;;;;18.15;8.20;;;;;;;18.63;50.51;99217.84;5112744;27;20060;-46
2022/06/09 04:43:30;;;;;;;18.95;7.57;;;;;;;18.72;50.31;99220.63;5118701;27;20039;-48
2022/06/09 04:45:56;;;;;;;21.23;8.30;;;;;;;18.79;50.53;99213.94;5132637;27;20042;-46
2022/06/09 04:48:22;;;;;;;19.00;8.00;;;;;;;18.86;50.41;99224.84;5119050;27;20045;-45
2022/06/09 04:50:47;;;;;;;20.33;7.60;;;;;;;18.92;50.08;99219.13;5131855;27;20051;-46
2022/06/09 04:53:13;;;;;;;24.45;8.95;;;;;;;19.00;50.06;99222.84;5129569;27;20415;-45
2022/06/09 04:55:41;;;;;;;21.52;8.82;;;;;;;19.10;49.75;99220.38;5126546;27;20518;-46
2022/06/09 04:58:07;;;;;;;25.65;8.77;;;;;;;19.17;49.24;99226.81;5112659;27;20104;-48
2022/06/09 05:00:33;;;;;;;22.65;8.73;;;;;;;19.26;49.05;99233.19;5116008;27;20039;-46
2022/06/09 05:03:00;;;;;;;25.42;8.25;;;;;;;19.37;48.18;99233.19;5148602;27;20039;-48
2022/06/09 05:05:32;;;;;;;21.88;8.63;;;;;;;19.44;48.10;99229.13;5132004;27;20573;-50
2022/06/09 05:07:58;;;;;;;19.77;8.70;;;;;;;19.55;48.39;99228.31;5130599;27;20035;-48
2022/06/09 05:10:26;;;;;;;22.10;8.00;;;;;;;19.64;48.20;99222.31;5131314;27;20430;-47
2022/06/09 05:12:52;;;;;;;25.65;9.77;;;;;;;19.68;48.19;99213.22;5112048;27;20130;-49
2022/06/09 05:15:19;;;;;;;18.65;7.78;;;;;;;19.83;47.84;99228.69;5116085;27;20134;-49
2022/06/09 05:17:45;;;;;;;17.13;8.10;;;;;;;19.93;47.01;99220.84;5121258;27;20039;-48
2022/06/09 05:20:17;;;;;;;23.27;8.05;;;;;;;20.05;46.50;99227.78;5126087;27;20072;-49
2022/06/09 05:22:43;;;;;;;16.27;8.38;;;;;;;20.15;46.02;99226.06;5111971;27;20063;-48
2022/06/09 05:25:09;;;;;;;21.10;7.95;;;;;;;20.24;45.92;99220.06;5109639;28;20104;-49
2022/06/09 05:27:35;;;;;;;20.70;9.88;;;;;;;20.38;46.23;99223.41;5122228;27;20043;-46
2022/06/09 05:30:03;;;;;;;18.63;7.55;;;;;;;20.49;44.87;99215.44;5118001;27;20071;-47
2022/06/09 05:32:29;;;;;;;31.85;8.95;;;;;;;20.60;44.53;99221.50;5113147;27;20032;-48
2022/06/09 05:34:55;;;;;;;23.48;7.82;;;;;;;20.68;44.15;99219.06;5114533;27;20122;-46
2022/06/09 05:37:21;;;;;;;19.20;7.50;;;;;;;20.84;42.48;99221.25;5121814;27;20039;-49
2022/06/09 05:45:16;;;;;;;19.77;7.63;;;;;;;21.18;41.08;99202.59;5130064;27;20046;-49
2022/06/09 05:47:42;;;;;;;14.73;7.28;;;;;;;21.36;41.05;99214.22;5119754;27;20538;-46
2022/06/09 05:50:09;;;;;;;20.67;7.05;;;;;;;21.50;41.01;99213.88;5115609;27;20046;-46
2022/06/09 05:52:35;;;;;;;16.73;6.30;;;;;;;21.65;41.73;99209.91;5143541;27;20498;-47
2022/06/09 05:55:01;;;;;;;17.63;6.68;;;;;;;21.84;41.31;99212.59;5111271;28;20047;-48
2022/06/09 05:57:29;;;;;;;13.88;5.65;;;;;;;21.98;39.84;99222.81;5113523;27;21483;-46
2022/06/09 05:59:55;;;;;;;15.32;5.45;;;;;;;22.11;39.07;99209.34;5131710;27;20039;-46
2022/06/09 06:02:23;;;;;;;13.80;5.55;;;;;;;22.23;38.53;99210.06;5125442;28;20108;-47
2022/06/09 06:04:49;;;;;;;15.63;5.27;;;;;;;22.33;37.91;99206.44;5109565;28;20115;-47
2022/06/09 06:07:15;;;;;;;13.77;4.53;;;;;;;22.43;37.66;99206.44;5116389;28;20285;-47
2022/06/09 06:09:41;;;;;;;7.97;3.60;;;;;;;22.56;36.03;99212.28;5136693;27;20043;-47
2022/06/09 06:12:08;;;;;;;9.82;3.58;;;;;;;22.69;34.85;99209.38;5109579;28;20046;-49
2022/06/09 06:14:33;;;;;;;12.30;3.50;;;;;;;22.76;34.77;99197.25;5120163;28;20035;-48
2022/06/09 06:16:59;;;;;;;10.05;4.10;;;;;;;22.91;34.64;99197.66;5115978;28;20101;-47
2022/06/09 06:19:25;;;;;;;7.50;3.28;;;;;;;23.04;34.03;99199.00;5130416;28;20039;-47
2022/06/09 06:21:52;;;;;;;8.38;3.10;;;;;;;23.13;31.92;99207.94;5130224;28;20046;-44
2022/06/09 06:24:24;;;;;;;6.22;2.50;;;;;;;23.24;32.13;99205.09;5131184;27;20449;-46
2022/06/09 06:26:50;;;;;;;7.28;3.67;;;;;;;23.38;32.40;99209.94;5109837;28;20039;-46
2022/06/09 06:29:19;;;;;;;5.63;2.33;;;;;;;23.56;32.36;99204.72;5110935;28;20041;-47
2022/06/09 06:31:45;;;;;;;11.20;3.17;;;;;;;23.76;32.79;99208.94;5114900;28;20040;-45
2022/06/09 06:34:11;;;;;;;13.05;2.50;;;;;;;23.89;31.59;99185.56;5112005;28;20042;-47
2022/06/09 06:36:37;;;;;;;7.63;2.90;;;;;;;24.20;31.67;99201.19;5112120;28;20042;-46
2022/06/09 06:39:04;;;;;;;14.77;3.00;;;;;;;24.67;31.69;99205.25;5128850;27;20039;-47
2022/06/09 06:41:30;;;;;;;4.63;2.80;;;;;;;25.35;30.00;99207.25;5132650;27;20050;-51
2022/06/09 06:43:55;;;;;;;8.25;2.80;;;;;;;26.06;28.84;99207.75;5106580;27;20039;-51
2022/06/09 06:46:22;;;;;;;6.68;2.78;;;;;;;27.18;26.84;99203.50;5114446;27;20050;-48
2022/06/09 06:48:48;;;;;;;9.25;2.92;;;;;;;28.41;25.26;99207.38;5133664;27;20042;-48
2022/06/09 06:51:14;;;;;;;4.88;2.40;;;;;;;29.42;24.20;99216.69;5131293;27;20058;-46
2022/06/09 06:53:40;;;;;;;5.10;2.70;;;;;;;30.58;22.66;99218.53;5124016;27;20034;-47
2022/06/09 06:56:07;;;;;;;6.25;1.95;;;;;;;31.71;21.00;99216.53;5127439;27;20567;-46
2022/06/09 06:58:33;;;;;;;5.38;2.30;;;;;;;32.73;20.33;99206.50;5113373;28;20032;-46
2022/06/09 07:01:00;;;;;;;5.05;1.88;;;;;;;33.72;19.08;99194.78;5118327;27;20031;-44
2022/06/09 07:03:26;;;;;;;4.55;2.65;;;;;;;33.94;17.76;99204.25;5127269;27;20120;-47
2022/06/09 07:05:52;;;;;;;7.10;2.20;;;;;;;34.45;17.09;99213.13;5123680;27;20043;-50
2022/06/09 07:08:18;;;;;;;4.10;2.15;;;;;;;35.21;16.24;99204.88;5125103;27;20416;-49
2022/06/09 07:10:44;;;;;;;4.43;1.80;;;;;;;36.10;16.00;99216.97;5126181;27;20042;-48
2022/06/09 07:13:11;;;;;;;4.20;2.10;;;;;;;37.07;15.35;99210.31;5122644;27;20031;-47
2022/06/09 07:15:37;;;;;;;3.92;2.30;;;;;;;37.84;14.74;99208.28;5122402;27;20416;-45
2022/06/09 07:18:03;;;;;;;6.50;2.30;;;;;;;38.47;14.08;99210.88;5123874;27;20039;-46
2022/06/09 07:20:29;;;;;;;6.80;2.60;;;;;;;39.23;14.03;99212.16;5123639;27;20095;-45
2022/06/09 07:22:55;;;;;;;5.30;2.22;;;;;;;39.86;13.59;99216.31;5124062;27;20039;-46
2022/06/09 07:25:25;;;;;;;5.57;2.60;;;;;;;40.40;13.30;99216.41;5122432;27;20479;-45
2022/06/09 07:27:52;;;;;;;5.07;2.45;;;;;;;41.10;12.85;99213.47;5127368;27;20034;-52
2022/06/09 07:30:19;;;;;;;4.00;2.60;;;;;;;41.72;12.58;99207.28;5122166;27;20493;-47
2022/06/09 07:32:46;;;;;;;5.80;2.45;;;;;;;42.18;12.58;99209.13;5131427;27;20035;-48
2022/06/09 07:35:15;;;;;;;7.85;3.00;;;;;;;42.56;11.83;99202.34;5127120;27;20114;-47
2022/06/09 07:37:42;;;;;;;3.10;2.30;;;;;;;43.01;11.43;99217.16;5122891;27;20549;-47
2022/06/09 07:40:10;;;;;;;3.85;2.20;;;;;;;42.94;11.41;99201.00;5121740;27;20146;-47
2022/06/09 07:42:37;;;;;;;7.80;4.68;;;;;;;43.53;11.38;99210.50;5126603;27;20047;-49
2022/06/09 07:45:05;;;;;;;15.15;5.05;;;;;;;43.88;11.38;99204.91;5123690;27;20046;-47
2022/06/09 07:47:30;;;;;;;8.27;3.20;;;;;;;44.23;10.47;99206.63;5115211;27;20039;-52
2022/06/09 07:49:57;;;;;;;6.00;3.13;;;;;;;44.41;10.52;99211.47;5133200;27;20057;-46
2022/06/09 07:52:23;;;;;;;5.00;2.35;;;;;;;44.45;10.39;99212.53;5111318;28;20027;-51
2022/06/09 07:54:49;;;;;;;5.38;2.17;;;;;;;43.36;10.42;99195.19;5114890;27;20145;-45
2022/06/09 07:57:15;;;;;;;2.88;2.50;;;;;;;43.45;10.53;99206.38;5127366;27;20566;-45
2022/06/09 07:59:41;;;;;;;4.80;2.40;;;;;;;41.88;11.28;99205.47;5130894;27;20046;-44
2022/06/09 08:02:07;;;;;;;4.82;2.50;;;;;;;41.87;11.66;99196.47;5118425;27;20043;-45
2022/06/09 08:04:33;;;;;;;5.72;2.35;;;;;;;41.75;11.24;99202.13;5131077;27;20529;-46
2022/06/09 08:06:59;;;;;;;6.18;2.65;;;;;;;42.34;11.42;99204.53;5133875;27;20039;-48
2022/06/09 08:09:25;;;;;;;4.80;2.35;;;;;;;42.41;11.17;99205.06;5121031;27;20145;-46
2022/06/09 08:11:51;;;;;;;5.30;2.40;;;;;;;43.02;11.37;99205.09;5121055;27;20602;-46
2022/06/09 08:14:17;;;;;;;8.57;3.50;;;;;;;43.82;10.97;99197.78;5124379;27;20070;-43
2022/06/09 08:16:43;;;;;;;7.32;2.92;;;;;;;44.55;10.31;99201.47;5123296;27;20047;-46
2022/06/09 08:19:10;;;;;;;;;;;;;;;45.03;10.52;99207.97;5109331;27;20039;-48
2022/06/09 08:21:36;;;;;;;5.15;2.80;;;;;;;45.72;10.62;99203.91;5127206;27;19920;-50
2022/06/09 08:24:02;;;;;;;3.78;2.90;;;;;;;45.83;10.41;99208.22;5123638;27;20084;-44
2022/06/09 08:26:28;;;;;;;7.73;3.20;;;;;;;45.94;10.04;99201.47;5125262;27;20117;-44
2022/06/09 08:28:55;;;;;;;3.85;3.50;;;;;;;46.34;9.78;99202.00;5119624;27;20043;-45
2022/06/09 08:31:20;;;;;;;3.67;3.00;;;;;;;46.57;9.90;99203.88;5123557;27;20092;-42
2022/06/09 08:33:46;;;;;;;3.80;2.90;;;;;;;46.59;9.74;99198.84;5124523;27;20031;-43
2022/06/09 08:36:12;;;;;;;6.03;3.50;;;;;;;46.74;9.90;99200.56;5118625;27;20506;-45
2022/06/09 08:38:38;;;;;;;3.72;2.92;;;;;;;46.91;9.86;99195.31;5116321;27;20122;-42
2022/06/09 08:41:22;;;;;;;7.45;3.22;;;;;;;47.09;9.80;99204.63;5112610;27;20059;-43
2022/06/09 08:43:56;;;;;;;7.55;3.60;;;;;;;47.26;10.00;99196.59;5124560;27;20043;-42
2022/06/09 08:46:46;;;;;;;5.30;3.30;;;;;;;47.45;9.51;99189.06;5120370;27;20043;-43
2022/06/09 08:49:50;;;;;;;3.72;3.42;;;;;;;47.70;9.64;99206.22;5125225;27;20047;-42
2022/06/09 08:52:30;;;;;;;6.72;3.60;;;;;;;47.15;9.77;99198.72;5113745;27;20047;-44
2022/06/09 08:54:57;;;;;;;3.30;3.00;;;;;;;47.48;9.40;99201.41;5097171;27;20031;-44
2022/06/09 08:57:32;;;;;;;3.70;3.05;;;;;;;47.45;9.25;99196.50;5119215;27;20039;-45
2022/06/09 08:59:58;;;;;;;3.70;3.30;;;;;;;47.40;9.52;99197.44;5124011;27;20122;-42
2022/06/09 09:02:25;;;;;;;9.32;6.20;;;;;;;47.47;9.54;99195.09;5126900;27;20565;-44
2022/06/09 09:05:02;;;;;;;5.22;4.72;;;;;;;47.75;9.66;99187.63;5124377;27;20039;-42
2022/06/09 09:07:30;;;;;;;3.60;3.33;;;;;;;47.86;9.41;99190.97;5123273;27;20043;-45
2022/06/09 09:09:59;;;;;;;5.90;3.67;;;;;;;47.76;9.60;99186.50;5115643;27;20039;-51
2022/06/09 09:12:34;;;;;;;5.57;3.60;;;;;;;48.04;9.14;99186.47;5105511;27;20031;-44
2022/06/09 09:15:03;;;;;;;4.00;3.42;;;;;;;48.30;9.11;99182.00;5124973;27;20430;-44
2022/06/09 09:17:44;;;;;;;11.07;4.30;;;;;;;48.56;9.15;99193.25;5120506;27;20046;-44
2022/06/09 09:20:32;;;;;;;4.40;3.95;;;;;;;48.72;9.24;99183.47;5120855;27;20066;-41
2022/06/09 09:23:13;;;;;;;6.03;3.80;;;;;;;48.95;9.39;99178.72;5116290;27;20066;-40
2022/06/09 09:25:48;;;;;;;3.97;3.60;;;;;;;48.95;9.03;99179.53;5137931;27;20422;-42
2022/06/09 09:28:27;;;;;;;4.95;4.53;;;;;;;48.97;8.96;99174.53;5124285;27;20091;-40
2022/06/09 09:31:00;;;;;;;7.97;7.28;;;;;;;48.98;9.23;99173.41;5128077;27;20046;-39
2022/06/09 09:33:26;;;;;;;5.65;4.60;;;;;;;49.00;9.38;99173.88;5130260;27;20110;-43
2022/06/09 09:36:00;;;;;;;4.40;4.10;;;;;;;48.91;9.07;99175.78;5128903;27;20047;-42
2022/06/09 09:38:38;;;;;;;5.07;3.90;;;;;;;48.63;9.70;99163.28;5128624;27;20057;-40
2022/06/09 09:41:05;;;;;;;5.30;4.20;;;;;;;48.69;9.30;99164.75;5127521;27;20175;-40
2022/06/09 09:43:39;;;;;;;4.72;3.90;;;;;;;48.64;9.14;99160.19;5116931;27;20048;-42
2022/06/09 09:46:27;;;;;;;9.10;8.20;;;;;;;48.81;8.97;99154.78;5109766;27;20051;-41
2022/06/09 09:48:56;;;;;;;6.90;4.43;;;;;;;48.78;9.24;99158.19;5124574;27;20559;-40
2022/06/09 09:51:36;;;;;;;7.55;4.03;;;;;;;48.08;9.14;99152.44;5126232;27;20055;-41
2022/06/09 09:54:32;;;;;;;4.40;4.00;;;;;;;47.94;9.03;99146.97;5124854;27;20045;-40
2022/06/09 09:57:27;;;;;;;;;;;;;;;48.21;9.29;99148.81;5123744;27;20104;-42
2022/06/09 09:59:55;;;;;;;5.05;4.03;;;;;;;48.16;9.12;99139.84;5119575;27;19919;-41
2022/06/09 10:08:36;;;;;;;5.07;3.83;;;;;;;47.83;9.30;99136.47;5126349;27;20536;-42
2022/06/09 10:14:24;;;;;;;4.80;4.32;;;;;;;48.52;9.62;99129.59;5134236;27;20043;-40
2022/06/09 10:16:51;;;;;;;4.80;4.40;;;;;;;48.85;9.13;99135.63;5129859;27;20081;-42
2022/06/09 10:19:19;;;;;;;11.30;4.65;;;;;;;48.95;9.29;99134.53;5123868;27;20545;-38
2022/06/09 10:21:53;;;;;;;5.63;4.32;;;;;;;49.00;9.29;99139.91;5149836;27;20541;-39
2022/06/09 10:24:23;;;;;;;6.32;4.47;;;;;;;48.76;9.23;99148.59;5134245;27;20038;-38
2022/06/09 10:26:54;;;;;;;5.43;4.45;;;;;;;48.68;9.38;99130.00;5132204;27;20062;-39
2022/06/09 10:29:44;;;;;;;5.15;4.28;;;;;;;48.78;9.18;99130.59;5115759;27;20039;-40
2022/06/09 10:32:44;;;;;;;5.13;4.22;;;;;;;48.81;9.17;99137.41;5127307;27;20112;-42
2022/06/09 10:35:23;;;;;;;4.55;4.20;;;;;;;48.66;8.93;99115.72;5130316;27;20066;-41
2022/06/09 10:37:51;;;;;;;5.32;4.20;;;;;;;48.53;9.14;99130.38;5130310;27;20117;-42
2022/06/09 10:40:37;;;;;;;4.50;4.10;;;;;;;47.76;9.25;99125.06;5131749;27;20069;-41
2022/06/09 10:43:05;;;;;;;;;;;;;;;45.83;10.64;99117.50;5126454;27;20213;-41
2022/06/09 10:45:52;;;;;;;5.85;3.45;;;;;;;44.98;11.11;99117.41;5128597;27;19955;-42
2022/06/09 10:57:13;;;;;;;;;;;;;;;46.42;10.35;99112.50;5127451;27;20035;-48
2022/06/09 10:59:46;;;;;;;4.55;4.22;;;;;;;46.57;10.32;99109.50;5134043;27;19938;-47
2022/06/09 11:02:18;;;;;;;4.47;3.58;;;;;;;44.81;10.79;99097.00;5125909;27;20035;-45
2022/06/09 11:04:45;;;;;;;5.55;3.97;;;;;;;44.86;11.22;99094.25;5130948;27;20542;-46
2022/06/09 11:07:29;;;;;;;3.80;3.50;;;;;;;45.86;11.15;99105.09;5126861;27;20063;-45
2022/06/09 11:10:19;;;;;;;4.60;4.20;;;;;;;46.95;10.68;99101.94;5132894;27;20043;-40
2022/06/09 11:12:48;;;;;;;5.60;4.00;;;;;;;47.54;10.30;99107.31;5130988;27;20574;-48
2022/06/09 11:15:23;;;;;;;8.25;4.38;;;;;;;47.80;10.38;99102.06;5105806;27;20044;-46
2022/06/09 11:17:55;;;;;;;5.82;3.95;;;;;;;47.01;9.96;99087.75;5148562;27;20046;-45
2022/06/09 11:20:46;;;;;;;4.43;4.03;;;;;;;46.75;10.20;99090.16;5130483;27;20035;-47
2022/06/09 11:23:36;;;;;;;4.10;3.80;;;;;;;46.47;9.82;99088.47;5124712;27;20036;-44
2022/06/09 11:26:36;;;;;;;4.38;3.92;;;;;;;45.87;10.36;99076.50;5129036;27;20073;-48
2022/06/09 11:29:02;;;;;;;7.03;3.78;;;;;;;45.66;10.66;99077.88;5146346;27;20107;-46
2022/06/09 11:31:55;;;;;;;6.47;4.22;;;;;;;46.16;10.52;99076.31;5149889;27;20471;-45
2022/06/09 11:34:27;;;;;;;4.60;3.90;;;;;;;46.27;10.25;99083.31;5131491;27;20035;-42
2022/06/09 11:37:27;;;;;;;4.00;3.60;;;;;;;46.38;10.59;99074.56;5132137;27;20078;-46
2022/06/09 11:39:53;;;;;;;5.35;3.63;;;;;;;44.75;11.31;99077.06;5127613;27;20184;-43
2022/06/09 11:42:53;;;;;;;4.07;3.75;;;;;;;43.92;11.98;99075.28;5129544;27;20126;-45
2022/06/09 11:45:29;;;;;;;3.50;3.30;;;;;;;44.29;11.54;99072.00;5126133;27;20047;-44
2022/06/09 11:47:57;;;;;;;4.55;3.10;;;;;;;44.98;11.35;99069.94;5114270;27;20506;-48
2022/06/09 11:50:37;;;;;;;7.45;3.92;;;;;;;45.61;11.04;99075.22;5128550;27;20509;-44
2022/06/09 11:53:04;;;;;;;4.88;4.00;;;;;;;46.09;10.83;99071.19;5131350;27;20039;-47
2022/06/09 11:58:34;;;;;;;3.83;3.53;;;;;;;46.15;10.77;99078.25;5131997;27;20425;-44
2022/06/09 12:01:35;;;;;;;4.82;3.60;;;;;;;46.39;11.37;99080.88;5132310;27;20117;-45
2022/06/09 12:04:32;;;;;;;7.53;3.90;;;;;;;46.83;11.11;99076.81;5113657;27;20521;-46
2022/06/09 12:07:22;;;;;;;5.90;3.95;;;;;;;47.00;10.85;99066.06;5120724;27;20044;-45
2022/06/09 12:10:12;;;;;;;7.25;4.20;;;;;;;46.98;10.90;99073.78;5131237;27;20042;-43
2022/06/09 12:12:41;;;;;;;4.47;3.83;;;;;;;46.18;10.83;99065.84;5116291;27;20506;-46
2022/06/09 12:15:28;;;;;;;7.60;4.35;;;;;;;46.21;11.32;99057.84;5127522;27;20053;-45